Time;durP1;ratioP1;P1;durP2;ratioP2;P2;SDS_P1;SDS_P2;PMS_P1;PMS_P2;Temp;Humidity;BMP_temperature;BMP_pressure;BME280_temperature;BME280_humidity;BME280_pressure;Samples;Min_cycle;Max_cycle;Signal;HPM_P1;HPM_P2
2022/10/11 00:00:05;;;;;;;;;;;;;;;;;;350089;28;759;-64
2022/10/11 00:00:15;;;;;;;;;;;;;;;;;;350124;28;860;-64
2022/10/11 00:00:26;;;;;;;;;;;;;;;;;;350071;28;845;-64
2022/10/11 00:00:36;;;;;;;;;;;;;;;;;;350061;28;933;-64
2022/10/11 00:00:47;;;;;;;;;;;;;;;;;;350000;28;991;-64
2022/10/11 00:00:57;;;;;;;;;;;;;;;;;;350126;28;1030;-64
2022/10/11 00:01:07;;;;;;;;;;;;;;;;;;349993;28;1082;-64
2022/10/11 00:01:17;;;;;;;;;;;;;;;;;;350072;28;1029;-64
2022/10/11 00:01:27;;;;;;;;;;;;;;;;;;350061;28;916;-65
2022/10/11 00:01:38;;;;;;;;;;;;;;;;;;350016;28;866;-64
2022/10/11 00:01:48;;;;;;;;;;;;;;;;;;350082;28;904;-64
2022/10/11 00:01:58;;;;;;;;;;;;;;;;;;351370;28;1221;-64
2022/10/11 00:02:08;;;;;;;;;;;;;;;;;;351429;28;983;-64
2022/10/11 00:02:19;;;;;;;;;;;;;;;;;;351464;28;936;-64
2022/10/11 00:02:29;;;;;;;;;;;;;;;;;;351348;28;1021;-64
2022/10/11 00:02:39;;;;;;;;;;;;;;;;;;351406;28;991;-64
2022/10/11 00:02:49;;;;;;;;;;;;;;;;;;351423;28;956;-64
2022/10/11 00:03:00;;;;;;;;;;;;;;;;;;351432;28;1055;-64
2022/10/11 00:03:10;;;;;;;;;;;;;;;;;;351376;28;948;-64
2022/10/11 00:03:20;;;;;;;;;;;;;;;;;;351395;28;980;-65
2022/10/11 00:03:30;;;;;;;;;;;;;;;;;;351423;28;1024;-65
2022/10/11 00:03:40;;;;;;;;;;;;;;;;;;351443;28;896;-64
2022/10/11 00:03:51;;;;;;;;;;;;;;;;;;351439;28;905;-64
2022/10/11 00:04:01;;;;;;;;;;;;;;;;;;351415;28;1104;-64
2022/10/11 00:04:11;;;;;;;;;;;;;;;;;;351417;28;978;-64
2022/10/11 00:04:21;;;;;;;;;;;;;;;;;;351444;28;885;-64
2022/10/11 00:04:31;;;;;;;;;;;;;;;;;;351435;28;971;-65
2022/10/11 00:04:42;;;;;;;;;;;;;;;;;;351441;28;834;-64
2022/10/11 00:04:52;;;;;;;;;;;;;;;;;;351432;28;991;-64
2022/10/11 00:05:02;;;;;;;;;;;;;;;;;;351387;28;979;-64
2022/10/11 00:05:12;;;;;;;;;;;;;;;;;;351456;28;905;-64
2022/10/11 00:05:22;;;;;;;;;;;;;;;;;;351391;28;873;-64
2022/10/11 00:05:33;;;;;;;;;;;;;;;;;;351450;28;917;-64
2022/10/11 00:05:44;;;;;;;;;;;;;;;;;;351393;28;1011;-64
2022/10/11 00:05:54;;;;;;;;;;;;;;;;;;351377;28;960;-64
2022/10/11 00:06:04;;;;;;;;;;;;;;;;;;351464;28;857;-65
2022/10/11 00:06:15;;;;;;;;;;;;;;;;;;351275;28;1397;-64
2022/10/11 00:06:25;;;;;;;;;;;;;;;;;;349739;28;1637;-64
2022/10/11 00:06:37;;;;;;;;;;;;;;;;;;351461;28;992;-64
2022/10/11 00:06:47;;;;;;;;;;;;;;;;;;351421;28;1011;-64
2022/10/11 00:06:57;;;;;;;;;;;;;;;;;;351394;28;1002;-64
2022/10/11 00:07:08;;;;;;;;;;;;;;;;;;351409;28;1182;-64
2022/10/11 00:07:18;;;;;;;;;;;;;;;;;;351454;28;865;-64
2022/10/11 00:07:29;;;;;;;;;;;;;;;;;;351340;28;848;-64
2022/10/11 00:07:39;;;;;;;;;;;;;;;;;;351468;28;923;-64
2022/10/11 00:07:49;;;;;;;;;;;;;;;;;;351434;28;916;-64
2022/10/11 00:07:59;;;;;;;;;;;;;;;;;;351409;28;797;-64
2022/10/11 00:08:11;;;;;;;;;;;;;;;;;;351464;28;908;-64
2022/10/11 00:08:21;;;;;;;;;;;;;;;;;;351429;28;968;-64
2022/10/11 00:08:31;;;;;;;;;;;;;;;;;;351368;28;1023;-64
2022/10/11 00:08:41;;;;;;;;;;;;;;;;;;351441;28;778;-64
2022/10/11 00:08:52;;;;;;;;;;;;;;;;;;351446;28;991;-64
2022/10/11 00:09:02;;;;;;;;;;;;;;;;;;351392;28;944;-64
2022/10/11 00:09:14;;;;;;;;;;;;;;;;;;351441;28;979;-64
2022/10/11 00:09:25;;;;;;;;;;;;;;;;;;351385;28;944;-65
2022/10/11 00:09:35;;;;;;;;;;;;;;;;;;351335;28;972;-65
2022/10/11 00:09:45;;;;;;;;;;;;;;;;;;351387;28;829;-64
2022/10/11 00:09:55;;;;;;;;;;;;;;;;;;351461;28;932;-64
2022/10/11 00:10:06;;;;;;;;;;;;;;;;;;351402;28;817;-64
2022/10/11 00:10:16;;;;;;;;;;;;;;;;;;351430;28;979;-64
2022/10/11 00:10:26;;;;;;;;;;;;;;;;;;351471;28;877;-64
2022/10/11 00:10:37;;;;;;;;;;;;;;;;;;351404;28;1038;-64
2022/10/11 00:11:00;;;;;;;;;;;;;;;;;;351426;28;837;-64
2022/10/11 00:11:10;;;;;;;;;;;;;;;;;;351401;28;1000;-64
2022/10/11 00:11:20;;;;;;;;;;;;;;;;;;351409;28;818;-64
2022/10/11 00:11:31;;;;;;;;;;;;;;;;;;351382;28;975;-64
2022/10/11 00:11:41;;;;;;;;;;;;;;;;;;351357;28;940;-64
2022/10/11 00:11:53;;;;;;;;;;;;;;;;;;351439;28;920;-64
2022/10/11 00:12:04;;;;;;;;;;;;;;;;;;351418;28;932;-64
2022/10/11 00:12:14;;;;;;;;;;;;;;;;;;351398;28;925;-65
2022/10/11 00:12:24;;;;;;;;;;;;;;;;;;351502;28;1024;-64
2022/10/11 00:12:35;;;;;;;;;;;;;;;;;;351298;28;845;-64
2022/10/11 00:12:45;;;;;;;;;;;;;;;;;;351223;28;797;-64
2022/10/11 00:12:55;;;;;;;;;;;;;;;;;;351248;28;996;-64
2022/10/11 00:13:06;;;;;;;;;;;;;;;;;;351245;28;904;-64
2022/10/11 00:13:16;;;;;;;;;;;;;;;;;;351220;28;952;-64
2022/10/11 00:13:26;;;;;;;;;;;;;;;;;;351181;28;1969;-64
2022/10/11 00:13:36;;;;;;;;;;;;;;;;;;351353;28;919;-64
2022/10/11 00:13:47;;;;;;;;;;;;;;;;;;351367;28;932;-65
2022/10/11 00:13:57;;;;;;;;;;;;;;;;;;351438;28;912;-64
2022/10/11 00:14:08;;;;;;;;;;;;;;;;;;351455;28;904;-64
2022/10/11 00:14:18;;;;;;;;;;;;;;;;;;351359;28;774;-64
2022/10/11 00:14:28;;;;;;;;;;;;;;;;;;351434;28;929;-64
2022/10/11 00:14:38;;;;;;;;;;;;;;;;;;351438;28;873;-64
2022/10/11 00:14:49;;;;;;;;;;;;;;;;;;351366;28;927;-65
2022/10/11 00:14:59;;;;;;;;;;;;;;;;;;351485;28;786;-64
2022/10/11 00:15:17;;;;;;;;;;;;;;;;;;351432;28;984;-64
2022/10/11 00:15:27;;;;;;;;;;;;;;;;;;351332;28;975;-65
2022/10/11 00:15:39;;;;;;;;;;;;;;;;;;351414;28;936;-64
2022/10/11 00:15:49;;;;;;;;;;;;;;;;;;351343;28;742;-64
2022/10/11 00:15:59;;;;;;;;;;;;;;;;;;351355;28;874;-64
2022/10/11 00:16:10;;;;;;;;;;;;;;;;;;351418;28;920;-64
2022/10/11 00:16:20;;;;;;;;;;;;;;;;;;351446;28;940;-64
2022/10/11 00:16:30;;;;;;;;;;;;;;;;;;351412;28;925;-65
2022/10/11 00:16:43;;;;;;;;;;;;;;;;;;351453;28;861;-64
2022/10/11 00:16:53;;;;;;;;;;;;;;;;;;351421;28;767;-64
2022/10/11 00:17:06;;;;;;;;;;;;;;;;;;351374;28;954;-64
2022/10/11 00:17:16;;;;;;;;;;;;;;;;;;351374;28;1280;-64
2022/10/11 00:17:26;;;;;;;;;;;;;;;;;;351447;28;845;-64
2022/10/11 00:17:37;;;;;;;;;;;;;;;;;;351377;28;924;-64
2022/10/11 00:17:47;;;;;;;;;;;;;;;;;;351412;28;817;-64
2022/10/11 00:17:58;;;;;;;;;;;;;;;;;;351367;28;928;-64
2022/10/11 00:18:08;;;;;;;;;;;;;;;;;;351029;28;1303;-65
2022/10/11 00:18:19;;;;;;;;;;;;;;;;;;351419;28;1003;-64
2022/10/11 00:18:29;;;;;;;;;;;;;;;;;;351448;28;1000;-65
2022/10/11 00:18:39;;;;;;;;;;;;;;;;;;351320;28;774;-65
2022/10/11 00:18:49;;;;;;;;;;;;;;;;;;351410;28;924;-64
2022/10/11 00:19:00;;;;;;;;;;;;;;;;;;351415;28;912;-64
2022/10/11 00:19:10;;;;;;;;;;;;;;;;;;351374;28;949;-65
2022/10/11 00:19:20;;;;;;;;;;;;;;;;;;351252;28;1075;-64
2022/10/11 00:19:30;;;;;;;;;;;;;;;;;;351440;28;856;-64
2022/10/11 00:19:41;;;;;;;;;;;;;;;;;;351381;28;960;-64
2022/10/11 00:19:51;;;;;;;;;;;;;;;;;;351339;28;908;-64
2022/10/11 00:20:01;;;;;;;;;;;;;;;;;;351388;28;936;-64
2022/10/11 00:20:12;;;;;;;;;;;;;;;;;;351404;28;941;-64
2022/10/11 00:20:22;;;;;;;;;;;;;;;;;;351446;28;845;-64
2022/10/11 00:20:33;;;;;;;;;;;;;;;;;;350565;28;2114;-64
2022/10/11 00:20:43;;;;;;;;;;;;;;;;;;352710;28;964;-64
2022/10/11 00:21:03;;;;;;;;;;;;;;;;;;352770;28;948;-64
2022/10/11 00:21:14;;;;;;;;;;;;;;;;;;352824;28;940;-64
2022/10/11 00:21:24;;;;;;;;;;;;;;;;;;352858;28;1054;-64
2022/10/11 00:21:35;;;;;;;;;;;;;;;;;;352765;28;948;-65
2022/10/11 00:21:45;;;;;;;;;;;;;;;;;;352795;28;1342;-64
2022/10/11 00:21:56;;;;;;;;;;;;;;;;;;352808;28;951;-64
2022/10/11 00:22:06;;;;;;;;;;;;;;;;;;352816;28;924;-64
2022/10/11 00:22:16;;;;;;;;;;;;;;;;;;352790;28;842;-64
2022/10/11 00:22:26;;;;;;;;;;;;;;;;;;352823;28;1022;-64
2022/10/11 00:22:37;;;;;;;;;;;;;;;;;;352843;28;852;-65
2022/10/11 00:22:48;;;;;;;;;;;;;;;;;;352806;28;928;-64
2022/10/11 00:22:58;;;;;;;;;;;;;;;;;;352775;28;916;-64
2022/10/11 00:23:08;;;;;;;;;;;;;;;;;;352882;28;813;-64
2022/10/11 00:23:19;;;;;;;;;;;;;;;;;;352856;28;1002;-64
2022/10/11 00:23:29;;;;;;;;;;;;;;;;;;352844;28;1019;-64
2022/10/11 00:23:40;;;;;;;;;;;;;;;;;;352786;28;975;-65
2022/10/11 00:23:50;;;;;;;;;;;;;;;;;;352838;28;857;-64
2022/10/11 00:24:01;;;;;;;;;;;;;;;;;;352738;28;863;-64
2022/10/11 00:24:11;;;;;;;;;;;;;;;;;;352820;28;805;-64
2022/10/11 00:24:21;;;;;;;;;;;;;;;;;;352770;28;924;-64
2022/10/11 00:24:32;;;;;;;;;;;;;;;;;;352793;28;1212;-64
2022/10/11 00:24:42;;;;;;;;;;;;;;;;;;352874;28;1203;-64
2022/10/11 00:24:52;;;;;;;;;;;;;;;;;;352823;28;1042;-64
2022/10/11 00:25:06;;;;;;;;;;;;;;;;;;352766;28;916;-65
2022/10/11 00:25:16;;;;;;;;;;;;;;;;;;352821;28;999;-64
2022/10/11 00:25:27;;;;;;;;;;;;;;;;;;352232;28;2007;-64
2022/10/11 00:25:38;;;;;;;;;;;;;;;;;;352499;28;841;-64
2022/10/11 00:25:55;;;;;;;;;;;;;;;;;;349675;28;1725;-65
2022/10/11 00:26:05;;;;;;;;;;;;;;;;;;349975;28;933;-64
2022/10/11 00:26:16;;;;;;;;;;;;;;;;;;350032;28;987;-64
2022/10/11 00:26:26;;;;;;;;;;;;;;;;;;350007;28;984;-64
2022/10/11 00:26:37;;;;;;;;;;;;;;;;;;349959;28;928;-65
2022/10/11 00:26:47;;;;;;;;;;;;;;;;;;350056;28;912;-64
2022/10/11 00:26:57;;;;;;;;;;;;;;;;;;350026;28;905;-64
2022/10/11 00:27:07;;;;;;;;;;;;;;;;;;350034;28;952;-64
2022/10/11 00:27:18;;;;;;;;;;;;;;;;;;350001;28;928;-64
2022/10/11 00:27:28;;;;;;;;;;;;;;;;;;350023;28;975;-64
2022/10/11 00:27:38;;;;;;;;;;;;;;;;;;350011;28;983;-64
2022/10/11 00:27:48;;;;;;;;;;;;;;;;;;349974;28;925;-64
2022/10/11 00:27:58;;;;;;;;;;;;;;;;;;349979;28;941;-64
2022/10/11 00:28:09;;;;;;;;;;;;;;;;;;349945;28;1370;-64
2022/10/11 00:28:19;;;;;;;;;;;;;;;;;;349984;28;952;-64
2022/10/11 00:28:29;;;;;;;;;;;;;;;;;;350026;28;909;-64
2022/10/11 00:28:40;;;;;;;;;;;;;;;;;;349974;28;817;-64
2022/10/11 00:28:51;;;;;;;;;;;;;;;;;;350031;28;937;-64
2022/10/11 00:29:01;;;;;;;;;;;;;;;;;;350018;28;853;-64
2022/10/11 00:29:11;;;;;;;;;;;;;;;;;;349967;28;937;-64
2022/10/11 00:29:21;;;;;;;;;;;;;;;;;;349969;28;937;-64
2022/10/11 00:29:32;;;;;;;;;;;;;;;;;;350003;28;980;-64
2022/10/11 00:29:42;;;;;;;;;;;;;;;;;;350039;28;1012;-64
2022/10/11 00:29:52;;;;;;;;;;;;;;;;;;350018;28;968;-64
2022/10/11 00:30:03;;;;;;;;;;;;;;;;;;349912;28;933;-64
2022/10/11 00:30:13;;;;;;;;;;;;;;;;;;349929;28;1016;-64
2022/10/11 00:30:23;;;;;;;;;;;;;;;;;;349952;28;933;-64
2022/10/11 00:30:34;;;;;;;;;;;;;;;;;;350036;28;1107;-64
2022/10/11 00:30:44;;;;;;;;;;;;;;;;;;349996;28;837;-64
2022/10/11 00:30:54;;;;;;;;;;;;;;;;;;350015;28;971;-65
2022/10/11 00:31:06;;;;;;;;;;;;;;;;;;350030;28;979;-64
2022/10/11 00:31:17;;;;;;;;;;;;;;;;;;349978;28;932;-64
2022/10/11 00:31:27;;;;;;;;;;;;;;;;;;349952;28;988;-64
2022/10/11 00:31:38;;;;;;;;;;;;;;;;;;350025;28;957;-64
2022/10/11 00:31:48;;;;;;;;;;;;;;;;;;349993;28;1011;-64
2022/10/11 00:31:58;;;;;;;;;;;;;;;;;;350029;28;840;-64
2022/10/11 00:32:08;;;;;;;;;;;;;;;;;;349967;28;1004;-64
2022/10/11 00:32:19;;;;;;;;;;;;;;;;;;350024;28;842;-64
2022/10/11 00:32:29;;;;;;;;;;;;;;;;;;349815;28;1358;-67
2022/10/11 00:32:39;;;;;;;;;;;;;;;;;;350057;28;933;-64
2022/10/11 00:32:49;;;;;;;;;;;;;;;;;;350489;28;1358;-64
2022/10/11 00:32:59;;;;;;;;;;;;;;;;;;352827;28;900;-64
2022/10/11 00:33:10;;;;;;;;;;;;;;;;;;352797;28;971;-64
2022/10/11 00:33:20;;;;;;;;;;;;;;;;;;352743;28;924;-64
2022/10/11 00:33:30;;;;;;;;;;;;;;;;;;352753;28;1910;-64
2022/10/11 00:33:40;;;;;;;;;;;;;;;;;;352795;28;991;-64
2022/10/11 00:33:52;;;;;;;;;;;;;;;;;;352820;28;1039;-64
2022/10/11 00:34:02;;;;;;;;;;;;;;;;;;352830;28;984;-65
2022/10/11 00:34:14;;;;;;;;;;;;;;;;;;352760;28;1007;-64
2022/10/11 00:34:24;;;;;;;;;;;;;;;;;;352812;28;936;-65
2022/10/11 00:34:34;;;;;;;;;;;;;;;;;;352740;28;995;-64
2022/10/11 00:34:44;;;;;;;;;;;;;;;;;;352807;28;908;-64
2022/10/11 00:34:57;;;;;;;;;;;;;;;;;;352730;28;929;-65
2022/10/11 00:35:08;;;;;;;;;;;;;;;;;;352787;28;990;-65
2022/10/11 00:35:18;;;;;;;;;;;;;;;;;;352782;28;837;-64
2022/10/11 00:35:28;;;;;;;;;;;;;;;;;;352071;28;1401;-64
2022/10/11 00:35:40;;;;;;;;;;;;;;;;;;350380;28;1503;-64
2022/10/11 00:35:50;;;;;;;;;;;;;;;;;;351408;28;817;-64
2022/10/11 00:36:00;;;;;;;;;;;;;;;;;;351410;28;1011;-64
2022/10/11 00:36:13;;;;;;;;;;;;;;;;;;351422;28;917;-64
2022/10/11 00:36:23;;;;;;;;;;;;;;;;;;351352;28;936;-64
2022/10/11 00:36:33;;;;;;;;;;;;;;;;;;351383;28;774;-64
2022/10/11 00:36:44;;;;;;;;;;;;;;;;;;351222;28;1007;-64
2022/10/11 00:36:54;;;;;;;;;;;;;;;;;;351421;28;1053;-64
2022/10/11 00:37:05;;;;;;;;;;;;;;;;;;351386;28;762;-64
2022/10/11 00:37:15;;;;;;;;;;;;;;;;;;351396;28;865;-64
2022/10/11 00:37:25;;;;;;;;;;;;;;;;;;351445;28;1023;-64
2022/10/11 00:37:36;;;;;;;;;;;;;;;;;;351359;28;1008;-64
2022/10/11 00:37:46;;;;;;;;;;;;;;;;;;351379;28;1044;-64
2022/10/11 00:37:57;;;;;;;;;;;;;;;;;;351371;28;909;-64
2022/10/11 00:38:07;;;;;;;;;;;;;;;;;;351401;28;913;-64
2022/10/11 00:38:17;;;;;;;;;;;;;;;;;;351377;28;845;-64
2022/10/11 00:38:27;;;;;;;;;;;;;;;;;;351285;28;972;-64
2022/10/11 00:38:38;;;;;;;;;;;;;;;;;;351366;28;976;-64
2022/10/11 00:38:48;;;;;;;;;;;;;;;;;;351391;28;1000;-64
2022/10/11 00:38:58;;;;;;;;;;;;;;;;;;351409;28;921;-64
2022/10/11 00:39:08;;;;;;;;;;;;;;;;;;351350;28;905;-64
2022/10/11 00:39:19;;;;;;;;;;;;;;;;;;351354;28;916;-64
2022/10/11 00:39:29;;;;;;;;;;;;;;;;;;351439;28;1043;-64
2022/10/11 00:39:39;;;;;;;;;;;;;;;;;;351405;28;987;-64
2022/10/11 00:39:49;;;;;;;;;;;;;;;;;;351347;28;949;-65
2022/10/11 00:40:00;;;;;;;;;;;;;;;;;;351405;28;837;-64
2022/10/11 00:40:13;;;;;;;;;;;;;;;;;;351442;28;1023;-64
2022/10/11 00:40:23;;;;;;;;;;;;;;;;;;351364;28;991;-64
2022/10/11 00:40:33;;;;;;;;;;;;;;;;;;351391;28;979;-65
2022/10/11 00:40:44;;;;;;;;;;;;;;;;;;351295;28;924;-64
2022/10/11 00:40:54;;;;;;;;;;;;;;;;;;351398;28;781;-64
2022/10/11 00:41:05;;;;;;;;;;;;;;;;;;351394;28;941;-64
2022/10/11 00:41:15;;;;;;;;;;;;;;;;;;351401;28;979;-64
2022/10/11 00:41:25;;;;;;;;;;;;;;;;;;349909;28;1399;-64
2022/10/11 00:41:35;;;;;;;;;;;;;;;;;;351303;28;909;-64
2022/10/11 00:41:48;;;;;;;;;;;;;;;;;;351379;28;964;-64
2022/10/11 00:41:58;;;;;;;;;;;;;;;;;;351363;28;880;-64
2022/10/11 00:42:11;;;;;;;;;;;;;;;;;;351348;28;821;-64
2022/10/11 00:42:22;;;;;;;;;;;;;;;;;;351314;28;1063;-64
2022/10/11 00:42:32;;;;;;;;;;;;;;;;;;351401;28;924;-64
2022/10/11 00:42:42;;;;;;;;;;;;;;;;;;351427;28;893;-64
2022/10/11 00:42:52;;;;;;;;;;;;;;;;;;351332;28;988;-64
2022/10/11 00:43:03;;;;;;;;;;;;;;;;;;351427;28;925;-64
2022/10/11 00:43:15;;;;;;;;;;;;;;;;;;351306;28;781;-64
2022/10/11 00:43:27;;;;;;;;;;;;;;;;;;351321;28;1361;-64
2022/10/11 00:43:37;;;;;;;;;;;;;;;;;;351459;28;850;-64
2022/10/11 00:43:47;;;;;;;;;;;;;;;;;;351412;28;995;-64
2022/10/11 00:44:12;;;;;;;;;;;;;;;;;;351403;28;983;-64
2022/10/11 00:44:24;;;;;;;;;;;;;;;;;;351343;28;1075;-64
2022/10/11 00:44:34;;;;;;;;;;;;;;;;;;351360;28;1055;-64
2022/10/11 00:44:45;;;;;;;;;;;;;;;;;;351411;28;921;-64
2022/10/11 00:45:15;;;;;;;;;;;;;;;;;;351354;28;1015;-64
2022/10/11 00:45:25;;;;;;;;;;;;;;;;;;351278;28;995;-64
2022/10/11 00:45:35;;;;;;;;;;;;;;;;;;351351;28;999;-64
2022/10/11 00:45:59;;;;;;;;;;;;;;;;;;351429;28;899;-64
2022/10/11 00:46:18;;;;;;;;;;;;;;;;;;351398;28;849;-64
2022/10/11 00:46:31;;;;;;;;;;;;;;;;;;351335;28;928;-64
2022/10/11 00:46:44;;;;;;;;;;;;;;;;;;351392;28;1035;-64
2022/10/11 00:47:07;;;;;;;;;;;;;;;;;;351393;28;801;-64
2022/10/11 00:47:20;;;;;;;;;;;;;;;;;;351406;28;873;-64
2022/10/11 00:47:30;;;;;;;;;;;;;;;;;;351396;28;1040;-64
2022/10/11 00:47:40;;;;;;;;;;;;;;;;;;351374;28;903;-64
2022/10/11 00:47:54;;;;;;;;;;;;;;;;;;351350;28;1135;-65
2022/10/11 00:48:13;;;;;;;;;;;;;;;;;;351401;28;955;-64
2022/10/11 00:48:30;;;;;;;;;;;;;;;;;;351354;28;861;-64
2022/10/11 00:48:43;;;;;;;;;;;;;;;;;;351378;28;944;-64
2022/10/11 00:48:59;;;;;;;;;;;;;;;;;;351345;28;1015;-65
2022/10/11 00:49:14;;;;;;;;;;;;;;;;;;351444;28;861;-64
2022/10/11 00:49:30;;;;;;;;;;;;;;;;;;351275;28;1000;-64
2022/10/11 00:49:45;;;;;;;;;;;;;;;;;;351367;28;1007;-64
2022/10/11 00:49:58;;;;;;;;;;;;;;;;;;351317;28;963;-64
2022/10/11 00:50:09;;;;;;;;;;;;;;;;;;351377;28;956;-64
2022/10/11 00:50:21;;;;;;;;;;;;;;;;;;350663;28;2071;-64
2022/10/11 00:50:33;;;;;;;;;;;;;;;;;;352782;28;912;-65
2022/10/11 00:50:43;;;;;;;;;;;;;;;;;;352846;28;889;-64
2022/10/11 00:50:54;;;;;;;;;;;;;;;;;;352779;28;1027;-64
2022/10/11 00:51:09;;;;;;;;;;;;;;;;;;352755;28;928;-64
2022/10/11 00:51:22;;;;;;;;;;;;;;;;;;352760;28;1159;-64
2022/10/11 00:51:33;;;;;;;;;;;;;;;;;;352763;28;960;-64
2022/10/11 00:51:46;;;;;;;;;;;;;;;;;;352777;28;837;-64
2022/10/11 00:52:01;;;;;;;;;;;;;;;;;;352792;28;987;-64
2022/10/11 00:52:31;;;;;;;;;;;;;;;;;;352702;28;860;-64
2022/10/11 00:52:44;;;;;;;;;;;;;;;;;;352725;28;971;-64
2022/10/11 00:52:57;;;;;;;;;;;;;;;;;;352796;28;774;-64
2022/10/11 00:53:10;;;;;;;;;;;;;;;;;;352803;28;840;-64
2022/10/11 00:53:21;;;;;;;;;;;;;;;;;;352717;28;940;-64
2022/10/11 00:53:32;;;;;;;;;;;;;;;;;;352677;28;1961;-64
2022/10/11 00:53:43;;;;;;;;;;;;;;;;;;352781;28;802;-64
2022/10/11 00:53:53;;;;;;;;;;;;;;;;;;352729;28;964;-64
2022/10/11 00:54:05;;;;;;;;;;;;;;;;;;352801;28;840;-64
2022/10/11 00:54:16;;;;;;;;;;;;;;;;;;352757;28;905;-64
2022/10/11 00:54:30;;;;;;;;;;;;;;;;;;352657;28;835;-64
2022/10/11 00:54:41;;;;;;;;;;;;;;;;;;352776;28;979;-64
2022/10/11 00:54:52;;;;;;;;;;;;;;;;;;352778;28;872;-64
2022/10/11 00:55:04;;;;;;;;;;;;;;;;;;352768;28;908;-64
2022/10/11 00:55:17;;;;;;;;;;;;;;;;;;352743;28;1164;-64
2022/10/11 00:55:32;;;;;;;;;;;;;;;;;;352728;28;975;-64
2022/10/11 00:55:47;;;;;;;;;;;;;;;;;;352813;28;987;-64
2022/10/11 00:56:07;;;;;;;;;;;;;;;;;;352746;28;801;-64
2022/10/11 00:56:23;;;;;;;;;;;;;;;;;;350919;28;1515;-64
2022/10/11 00:56:36;;;;;;;;;;;;;;;;;;351338;28;1020;-64
2022/10/11 00:56:48;;;;;;;;;;;;;;;;;;351285;28;1019;-64
2022/10/11 00:57:02;;;;;;;;;;;;;;;;;;351415;28;837;-64
2022/10/11 00:57:20;;;;;;;;;;;;;;;;;;351396;28;971;-64
2022/10/11 00:57:33;;;;;;;;;;;;;;;;;;351284;28;939;-65
2022/10/11 00:57:46;;;;;;;;;;;;;;;;;;351361;28;1030;-64
2022/10/11 00:57:57;;;;;;;;;;;;;;;;;;351370;28;899;-64
2022/10/11 00:58:08;;;;;;;;;;;;;;;;;;351376;28;943;-64
2022/10/11 00:58:19;;;;;;;;;;;;;;;;;;351293;28;1007;-64
2022/10/11 00:58:30;;;;;;;;;;;;;;;;;;351347;28;956;-64
2022/10/11 00:58:41;;;;;;;;;;;;;;;;;;351376;28;1760;-64
2022/10/11 00:58:53;;;;;;;;;;;;;;;;;;351313;28;1038;-64
2022/10/11 00:59:04;;;;;;;;;;;;;;;;;;351308;28;975;-64
2022/10/11 00:59:20;;;;;;;;;;;;;;;;;;351344;28;996;-64
2022/10/11 00:59:33;;;;;;;;;;;;;;;;;;351326;28;840;-64
2022/10/11 00:59:45;;;;;;;;;;;;;;;;;;351270;28;999;-65
2022/10/11 00:59:56;;;;;;;;;;;;;;;;;;351360;28;983;-64
2022/10/11 01:00:08;;;;;;;;;;;;;;;;;;351393;28;899;-64
2022/10/11 01:00:19;;;;;;;;;;;;;;;;;;349828;28;1243;-64
2022/10/11 01:00:29;;;;;;;;;;;;;;;;;;349854;28;817;-64
2022/10/11 01:00:39;;;;;;;;;;;;;;;;;;349888;28;861;-64
2022/10/11 01:00:49;;;;;;;;;;;;;;;;;;349875;28;956;-64
2022/10/11 01:01:00;;;;;;;;;;;;;;;;;;349840;28;1000;-64
2022/10/11 01:01:10;;;;;;;;;;;;;;;;;;349838;28;998;-64
2022/10/11 01:01:20;;;;;;;;;;;;;;;;;;349834;28;861;-64
2022/10/11 01:01:31;;;;;;;;;;;;;;;;;;349297;28;1413;-64
2022/10/11 01:01:41;;;;;;;;;;;;;;;;;;348237;28;1582;-64
2022/10/11 01:01:51;;;;;;;;;;;;;;;;;;348770;28;1135;-64
2022/10/11 01:02:22;;;;;;;;;;;;;;;;;;351435;28;616;-64
2022/10/11 01:02:50;;;;;;;;;;;;;;;;;;351441;28;636;-64
2022/10/11 01:03:01;;;;;;;;;;;;;;;;;;351312;28;913;-64
2022/10/11 01:03:12;;;;;;;;;;;;;;;;;;351390;28;868;-64
2022/10/11 01:03:24;;;;;;;;;;;;;;;;;;351271;28;1032;-65
2022/10/11 01:03:38;;;;;;;;;;;;;;;;;;351346;28;821;-64
2022/10/11 01:03:48;;;;;;;;;;;;;;;;;;351329;28;1135;-64
2022/10/11 01:04:00;;;;;;;;;;;;;;;;;;351378;28;805;-64
2022/10/11 01:04:10;;;;;;;;;;;;;;;;;;351356;28;840;-65
2022/10/11 01:04:20;;;;;;;;;;;;;;;;;;351268;28;1071;-64
2022/10/11 01:04:31;;;;;;;;;;;;;;;;;;351349;28;1035;-64
2022/10/11 01:04:41;;;;;;;;;;;;;;;;;;351267;28;1131;-64
2022/10/11 01:04:51;;;;;;;;;;;;;;;;;;351296;28;928;-64
2022/10/11 01:05:04;;;;;;;;;;;;;;;;;;351364;28;999;-64
2022/10/11 01:05:16;;;;;;;;;;;;;;;;;;351293;28;1002;-64
2022/10/11 01:05:26;;;;;;;;;;;;;;;;;;351321;28;975;-64
2022/10/11 01:05:37;;;;;;;;;;;;;;;;;;351379;28;936;-64
2022/10/11 01:05:48;;;;;;;;;;;;;;;;;;351309;28;983;-64
2022/10/11 01:05:58;;;;;;;;;;;;;;;;;;351362;28;818;-64
2022/10/11 01:06:09;;;;;;;;;;;;;;;;;;351323;28;968;-64
2022/10/11 01:06:19;;;;;;;;;;;;;;;;;;351348;28;829;-64
2022/10/11 01:06:29;;;;;;;;;;;;;;;;;;351329;28;912;-64
2022/10/11 01:06:40;;;;;;;;;;;;;;;;;;351288;28;960;-64
2022/10/11 01:06:51;;;;;;;;;;;;;;;;;;351367;28;846;-64
2022/10/11 01:07:02;;;;;;;;;;;;;;;;;;351291;28;1097;-64
2022/10/11 01:07:12;;;;;;;;;;;;;;;;;;351324;28;798;-64
2022/10/11 01:07:26;;;;;;;;;;;;;;;;;;351302;28;977;-64
2022/10/11 01:07:37;;;;;;;;;;;;;;;;;;351347;28;983;-64
2022/10/11 01:07:49;;;;;;;;;;;;;;;;;;351292;28;837;-64
2022/10/11 01:07:59;;;;;;;;;;;;;;;;;;349923;28;1308;-64
2022/10/11 01:08:10;;;;;;;;;;;;;;;;;;351252;28;892;-64
2022/10/11 01:08:20;;;;;;;;;;;;;;;;;;351327;28;852;-64
2022/10/11 01:08:30;;;;;;;;;;;;;;;;;;351332;28;1019;-64
2022/10/11 01:08:41;;;;;;;;;;;;;;;;;;351364;28;937;-64
2022/10/11 01:08:51;;;;;;;;;;;;;;;;;;351321;28;1007;-64
2022/10/11 01:09:02;;;;;;;;;;;;;;;;;;351326;28;920;-64
2022/10/11 01:09:12;;;;;;;;;;;;;;;;;;351367;28;849;-65
2022/10/11 01:09:24;;;;;;;;;;;;;;;;;;351273;28;1027;-64
2022/10/11 01:09:35;;;;;;;;;;;;;;;;;;351366;28;1011;-64
2022/10/11 01:09:46;;;;;;;;;;;;;;;;;;351363;28;1027;-64
2022/10/11 01:09:56;;;;;;;;;;;;;;;;;;351255;28;948;-64
2022/10/11 01:10:06;;;;;;;;;;;;;;;;;;351319;28;1027;-64
2022/10/11 01:10:17;;;;;;;;;;;;;;;;;;351371;28;793;-64
2022/10/11 01:10:27;;;;;;;;;;;;;;;;;;351322;28;983;-65
2022/10/11 01:10:38;;;;;;;;;;;;;;;;;;351374;28;853;-64
2022/10/11 01:10:48;;;;;;;;;;;;;;;;;;351400;28;848;-65
2022/10/11 01:10:58;;;;;;;;;;;;;;;;;;351351;28;1080;-64
2022/10/11 01:11:13;;;;;;;;;;;;;;;;;;351329;28;982;-64
2022/10/11 01:11:25;;;;;;;;;;;;;;;;;;351292;28;1054;-64
2022/10/11 01:11:38;;;;;;;;;;;;;;;;;;351431;28;813;-64
2022/10/11 01:11:49;;;;;;;;;;;;;;;;;;351333;28;1007;-64
2022/10/11 01:12:02;;;;;;;;;;;;;;;;;;351284;28;984;-64
2022/10/11 01:12:20;;;;;;;;;;;;;;;;;;351338;28;999;-64
2022/10/11 01:12:30;;;;;;;;;;;;;;;;;;351333;28;1019;-64
2022/10/11 01:12:59;;;;;;;;;;;;;;;;;;351312;28;1087;-64
2022/10/11 01:13:12;;;;;;;;;;;;;;;;;;351257;28;1079;-64
2022/10/11 01:13:31;;;;;;;;;;;;;;;;;;351345;28;916;-64
2022/10/11 01:13:53;;;;;;;;;;;;;;;;;;351358;28;960;-64
2022/10/11 01:14:15;;;;;;;;;;;;;;;;;;351235;28;991;-64
2022/10/11 01:14:35;;;;;;;;;;;;;;;;;;351326;28;1019;-64
2022/10/11 01:14:45;;;;;;;;;;;;;;;;;;351366;28;868;-64
2022/10/11 01:15:01;;;;;;;;;;;;;;;;;;351329;28;924;-64
2022/10/11 01:15:28;;;;;;;;;;;;;;;;;;351308;28;770;-64
2022/10/11 01:15:43;;;;;;;;;;;;;;;;;;351334;28;986;-64
2022/10/11 01:15:56;;;;;;;;;;;;;;;;;;351370;28;971;-64
2022/10/11 01:16:09;;;;;;;;;;;;;;;;;;351319;28;865;-64
2022/10/11 01:16:28;;;;;;;;;;;;;;;;;;351277;28;908;-64
2022/10/11 01:16:52;;;;;;;;;;;;;;;;;;351357;28;968;-64
2022/10/11 01:17:08;;;;;;;;;;;;;;;;;;351383;28;995;-64
2022/10/11 01:17:25;;;;;;;;;;;;;;;;;;351283;28;979;-64
2022/10/11 01:17:58;;;;;;;;;;;;;;;;;;351350;28;806;-64
2022/10/11 01:18:13;;;;;;;;;;;;;;;;;;351349;28;917;-64
2022/10/11 01:18:34;;;;;;;;;;;;;;;;;;351347;28;924;-64
2022/10/11 01:18:44;;;;;;;;;;;;;;;;;;351343;28;1019;-64
2022/10/11 01:19:06;;;;;;;;;;;;;;;;;;351373;28;1046;-65
2022/10/11 01:19:25;;;;;;;;;;;;;;;;;;351259;28;1067;-64
2022/10/11 01:20:11;;;;;;;;;;;;;;;;;;351357;28;971;-64
2022/10/11 01:20:27;;;;;;;;;;;;;;;;;;345851;28;2084;-64
2022/10/11 01:20:48;;;;;;;;;;;;;;;;;;346421;28;1399;-64
2022/10/11 01:21:13;;;;;;;;;;;;;;;;;;347031;28;940;-64
2022/10/11 01:21:33;;;;;;;;;;;;;;;;;;346976;28;775;-64
2022/10/11 01:22:01;;;;;;;;;;;;;;;;;;346372;28;2052;-64
2022/10/11 01:22:30;;;;;;;;;;;;;;;;;;346411;28;1950;-64
2022/10/11 01:22:58;;;;;;;;;;;;;;;;;;346358;28;1420;-65
2022/10/11 01:23:27;;;;;;;;;;;;;;;;;;346159;28;2079;-65
2022/10/11 01:23:49;;;;;;;;;;;;;;;;;;349915;28;853;-64
2022/10/11 01:24:05;;;;;;;;;;;;;;;;;;350079;28;1358;-64
2022/10/11 01:24:33;;;;;;;;;;;;;;;;;;350482;28;2008;-64
2022/10/11 01:24:52;;;;;;;;;;;;;;;;;;351430;28;2018;-65
2022/10/11 01:25:21;;;;;;;;;;;;;;;;;;352797;28;920;-64
2022/10/11 01:25:50;;;;;;;;;;;;;;;;;;352727;28;810;-64
2022/10/11 01:26:39;;;;;;;;;;;;;;;;;;352702;28;1100;-64
2022/10/11 01:26:57;;;;;;;;;;;;;;;;;;345702;28;833;-64
2022/10/11 01:27:13;;;;;;;;;;;;;;;;;;345706;28;987;-64
2022/10/11 01:27:37;;;;;;;;;;;;;;;;;;345625;28;897;-64
2022/10/11 01:28:05;;;;;;;;;;;;;;;;;;345714;28;1000;-64
2022/10/11 01:28:19;;;;;;;;;;;;;;;;;;345679;28;865;-64
2022/10/11 01:28:41;;;;;;;;;;;;;;;;;;345694;28;961;-64
2022/10/11 01:29:21;;;;;;;;;;;;;;;;;;345690;28;858;-64
2022/10/11 01:29:46;;;;;;;;;;;;;;;;;;342986;28;1202;-64
2022/10/11 01:30:03;;;;;;;;;;;;;;;;;;342951;28;1084;-64